createdAt,value
2022-09-23T00:01:19.389Z,3.27
2022-09-23T00:04:06.273Z,3.30
2022-09-23T00:06:52.919Z,3.17
2022-09-23T00:09:39.476Z,3.13
2022-09-23T00:12:27.280Z,3.27
2022-09-23T00:15:14.028Z,3.27
2022-09-23T00:18:00.440Z,3.00
2022-09-23T00:20:46.967Z,3.00
2022-09-23T00:23:33.535Z,3.10
2022-09-23T00:26:21.989Z,2.73
2022-09-23T00:29:10.112Z,2.97
2022-09-23T00:31:56.848Z,3.30
2022-09-23T00:34:45.278Z,2.63
2022-09-23T00:37:32.343Z,3.00
2022-09-23T00:40:19.319Z,2.83
2022-09-23T00:43:06.912Z,2.40
2022-09-23T00:45:55.281Z,2.30
2022-09-23T00:48:43.801Z,2.53
2022-09-23T00:51:35.914Z,1.90
2022-09-23T00:54:24.016Z,2.40
2022-09-23T00:57:12.149Z,2.37
2022-09-23T00:59:58.956Z,2.00
2022-09-23T01:02:47.762Z,2.00
2022-09-23T01:05:36.464Z,1.77
2022-09-23T01:08:24.495Z,1.90
2022-09-23T01:11:20.353Z,1.97
2022-09-23T01:14:26.299Z,1.73
2022-09-23T01:17:17.368Z,1.80
2022-09-23T01:20:24.384Z,1.80
2022-09-23T01:23:24.628Z,1.53
2022-09-23T01:26:43.749Z,1.70
2022-09-23T01:29:59.895Z,1.63
2022-09-23T01:33:05.647Z,1.60
2022-09-23T01:36:05.653Z,1.70
2022-09-23T01:38:59.934Z,1.60
2022-09-23T01:41:53.229Z,1.50
2022-09-23T01:44:44.625Z,1.60
2022-09-23T01:47:35.850Z,1.40
2022-09-23T01:50:45.803Z,1.30
2022-09-23T01:53:39.123Z,1.30
2022-09-23T01:56:29.980Z,1.20
2022-09-23T01:59:21.595Z,1.20
2022-09-23T02:02:15.283Z,1.40
2022-09-23T02:05:05.363Z,1.47
2022-09-23T02:07:59.864Z,1.47
2022-09-23T02:10:50.148Z,1.33
2022-09-23T02:13:42.025Z,1.87
2022-09-23T02:16:32.430Z,1.17
2022-09-23T02:19:24.433Z,1.23
2022-09-23T02:22:16.882Z,1.30
2022-09-23T02:25:05.269Z,1.30
2022-09-23T02:27:57.584Z,1.30
2022-09-23T02:30:49.562Z,0.97
2022-09-23T02:33:40.389Z,1.17
2022-09-23T02:36:32.337Z,1.20
2022-09-23T02:39:21.772Z,1.27
2022-09-23T02:42:13.497Z,1.40
2022-09-23T02:45:00.199Z,1.20
2022-09-23T02:47:49.683Z,1.30
2022-09-23T02:50:36.459Z,1.27
2022-09-23T02:53:24.428Z,1.37
2022-09-23T02:56:16.774Z,1.40
2022-09-23T02:59:05.780Z,3.57
2022-09-23T03:02:17.417Z,1.30
2022-09-23T03:05:12.728Z,1.10
2022-09-23T03:08:20.487Z,1.20
2022-09-23T03:11:08.592Z,1.63
2022-09-23T03:14:17.379Z,1.60
2022-09-23T03:17:06.989Z,1.27
2022-09-23T03:19:59.503Z,1.50
2022-09-23T03:22:48.796Z,2.03
2022-09-23T03:25:39.612Z,2.50
2022-09-23T03:28:27.216Z,2.20
2022-09-23T03:31:16.365Z,1.50
2022-09-23T03:34:06.456Z,1.30
2022-09-23T03:36:59.237Z,1.50
2022-09-23T03:39:50.924Z,1.10
2022-09-23T03:42:39.179Z,1.13
2022-09-23T03:45:36.562Z,1.50
2022-09-23T03:48:24.525Z,1.30
2022-09-23T03:51:24.804Z,1.50
2022-09-23T03:54:11.240Z,1.53
2022-09-23T03:56:58.463Z,1.50
2022-09-23T03:59:45.279Z,1.40
2022-09-23T04:02:32.294Z,1.40
2022-09-23T04:05:20.379Z,1.37
2022-09-23T04:08:07.109Z,1.37
2022-09-23T04:10:54.955Z,1.50
2022-09-23T04:13:41.645Z,1.33
2022-09-23T04:16:28.456Z,1.50
2022-09-23T04:19:15.851Z,1.50
2022-09-23T04:22:03.644Z,1.40
2022-09-23T04:24:50.339Z,1.20
2022-09-23T04:27:37.953Z,1.30
2022-09-23T04:30:24.544Z,1.20
2022-09-23T04:33:11.851Z,1.40
2022-09-23T04:35:58.362Z,1.50
2022-09-23T04:38:46.520Z,1.40
2022-09-23T04:41:32.880Z,1.30
2022-09-23T04:44:21.020Z,1.20
2022-09-23T04:47:07.612Z,1.10
2022-09-23T04:49:59.019Z,1.70
2022-09-23T04:52:46.261Z,1.37
2022-09-23T04:55:34.163Z,1.47
2022-09-23T04:58:22.979Z,1.37
2022-09-23T05:01:11.182Z,1.20
2022-09-23T05:04:02.349Z,1.30
2022-09-23T05:06:49.255Z,1.40
2022-09-23T05:09:35.916Z,1.60
2022-09-23T05:12:23.479Z,1.30
2022-09-23T05:15:09.981Z,1.37
2022-09-23T05:17:58.624Z,1.40
2022-09-23T05:20:45.152Z,1.40
2022-09-23T05:23:31.926Z,1.20
2022-09-23T05:26:18.391Z,1.20
2022-09-23T05:29:06.400Z,1.30
2022-09-23T05:31:53.253Z,1.40
2022-09-23T05:34:40.272Z,1.50
2022-09-23T05:37:26.700Z,1.77
2022-09-23T05:40:13.127Z,1.90
2022-09-23T05:42:59.448Z,1.40
2022-09-23T05:45:47.316Z,1.50
2022-09-23T05:48:34.232Z,1.63
2022-09-23T05:51:22.615Z,1.70
2022-09-23T05:54:09.574Z,1.37
2022-09-23T05:56:57.675Z,2.50
2022-09-23T05:59:47.721Z,1.90
2022-09-23T06:02:35.537Z,1.60
2022-09-23T06:05:22.494Z,1.53
2022-09-23T06:08:10.224Z,1.40
2022-09-23T06:10:57.257Z,1.53
2022-09-23T06:13:43.670Z,1.63
2022-09-23T06:16:32.140Z,1.43
2022-09-23T06:19:20.261Z,1.47
2022-09-23T06:22:06.736Z,1.60
2022-09-23T06:24:53.218Z,1.50
2022-09-23T06:27:39.580Z,1.53
2022-09-23T06:30:27.555Z,1.50
2022-09-23T06:33:17.269Z,1.70
2022-09-23T06:36:08.672Z,1.47
2022-09-23T06:38:56.096Z,1.60
2022-09-23T06:41:42.808Z,1.50
2022-09-23T06:44:29.392Z,1.60
2022-09-23T06:47:15.907Z,1.43
2022-09-23T06:50:02.252Z,1.50
2022-09-23T06:52:54.839Z,1.70
2022-09-23T06:55:41.475Z,1.50
2022-09-23T06:58:28.244Z,1.30
2022-09-23T07:01:17.119Z,1.47
2022-09-23T07:04:03.952Z,1.43
2022-09-23T07:06:50.391Z,1.40
2022-09-23T07:09:38.532Z,1.43
2022-09-23T07:12:24.900Z,1.47
2022-09-23T07:15:12.327Z,1.50
2022-09-23T07:17:59.024Z,1.70
2022-09-23T07:20:46.559Z,1.60
2022-09-23T07:23:33.546Z,1.60
2022-09-23T07:26:22.830Z,1.70
2022-09-23T07:29:13.260Z,1.40
2022-09-23T07:32:10.809Z,1.87
2022-09-23T07:34:59.992Z,1.43
2022-09-23T07:37:46.397Z,1.50
2022-09-23T07:40:32.681Z,1.60
2022-09-23T07:43:20.937Z,1.47
2022-09-23T07:46:10.275Z,1.50
2022-09-23T07:48:57.357Z,1.40
2022-09-23T07:51:45.988Z,1.80
2022-09-23T07:54:32.953Z,1.43
2022-09-23T07:57:19.778Z,1.50
2022-09-23T08:00:08.912Z,1.60
2022-09-23T08:02:55.643Z,1.90
2022-09-23T08:05:42.092Z,1.33
2022-09-23T08:08:29.204Z,1.50
2022-09-23T08:11:15.881Z,1.27
2022-09-23T08:14:02.195Z,1.40
2022-09-23T08:16:51.912Z,1.80
2022-09-23T08:19:38.491Z,1.47
2022-09-23T08:22:24.691Z,1.77
2022-09-23T08:25:11.241Z,1.50
2022-09-23T08:27:58.060Z,1.53
2022-09-23T08:30:45.097Z,1.60
2022-09-23T08:33:32.723Z,1.30
2022-09-23T08:36:19.053Z,1.37
2022-09-23T08:39:06.704Z,1.50
2022-09-23T08:42:08.173Z,1.50
2022-09-23T08:44:58.851Z,1.60
2022-09-23T08:47:53.324Z,1.80
2022-09-23T08:50:44.002Z,1.60
2022-09-23T08:53:33.527Z,1.80
2022-09-23T08:56:23.502Z,1.50
2022-09-23T08:59:15.632Z,2.00
2022-09-23T09:02:07.220Z,4.60
2022-09-23T09:04:58.004Z,2.20
2022-09-23T09:07:46.336Z,2.00
2022-09-23T09:10:41.450Z,3.90
2022-09-23T09:13:33.153Z,2.30
2022-09-23T09:17:01.240Z,3.73
2022-09-23T09:20:01.264Z,3.40
2022-09-23T09:22:54.482Z,4.77
2022-09-23T09:25:46.131Z,2.93
2022-09-23T09:28:40.962Z,2.20
2022-09-23T09:31:32.108Z,2.70
2022-09-23T09:34:29.656Z,2.37
2022-09-23T09:37:21.746Z,2.10
2022-09-23T09:40:13.263Z,3.87
2022-09-23T09:42:59.860Z,2.80
2022-09-23T09:45:59.153Z,3.20
2022-09-23T09:48:53.679Z,3.07
2022-09-23T09:51:41.283Z,2.40
2022-09-23T09:54:28.280Z,8.53
2022-09-23T09:57:32.097Z,4.00
2022-09-23T10:00:38.276Z,2.10
2022-09-23T10:03:35.306Z,4.10
2022-09-23T10:06:24.765Z,2.27
2022-09-23T10:09:16.991Z,2.10
2022-09-23T10:12:13.125Z,1.60
2022-09-23T10:15:01.092Z,1.87
2022-09-23T10:17:51.750Z,1.90
2022-09-23T10:20:39.053Z,1.70
2022-09-23T10:23:29.731Z,1.63
2022-09-23T10:26:17.487Z,1.97
2022-09-23T10:29:12.141Z,1.83
2022-09-23T10:32:27.041Z,2.00
2022-09-23T10:35:16.620Z,1.93
2022-09-23T10:38:03.239Z,1.87
2022-09-23T10:41:07.260Z,1.60
2022-09-23T10:44:26.112Z,1.57
2022-09-23T10:47:23.857Z,1.77
2022-09-23T10:50:30.644Z,1.93
2022-09-23T10:53:26.122Z,2.07
2022-09-23T10:56:22.763Z,1.43
2022-09-23T10:59:43.510Z,1.90
2022-09-23T11:02:48.063Z,3.10
2022-09-23T11:05:42.011Z,1.70
2022-09-23T11:08:44.627Z,2.27
2022-09-23T11:11:41.435Z,3.63
2022-09-23T11:15:07.306Z,2.47
2022-09-23T11:18:26.765Z,4.23
2022-09-23T11:21:36.239Z,2.37
2022-09-23T11:24:50.264Z,2.67
2022-09-23T11:27:46.833Z,2.53
2022-09-23T11:30:44.291Z,3.00
2022-09-23T11:33:46.867Z,2.87
2022-09-23T11:36:37.541Z,2.50
2022-09-23T11:39:30.068Z,2.60
2022-09-23T11:42:22.298Z,2.17
2022-09-23T11:45:19.017Z,2.20
2022-09-23T11:48:09.725Z,1.93
2022-09-23T11:51:01.525Z,2.23
2022-09-23T11:53:52.853Z,3.30
2022-09-23T11:56:47.370Z,2.20
2022-09-23T11:59:41.259Z,2.23
2022-09-23T12:02:33.641Z,1.93
2022-09-23T12:05:24.907Z,1.83
2022-09-23T12:08:23.690Z,2.03
2022-09-23T12:11:22.562Z,2.03
2022-09-23T12:14:19.352Z,2.20
2022-09-23T12:17:22.359Z,1.90
2022-09-23T12:20:27.891Z,1.87
2022-09-23T12:23:30.602Z,2.27
2022-09-23T12:26:21.244Z,2.20
2022-09-23T12:29:11.628Z,1.90
2022-09-23T12:31:58.435Z,1.60
2022-09-23T12:34:49.192Z,2.03
2022-09-23T12:37:39.070Z,2.13
2022-09-23T12:40:32.901Z,2.10
2022-09-23T12:43:20.966Z,2.00
2022-09-23T12:46:23.453Z,2.00
2022-09-23T12:49:26.249Z,2.03
2022-09-23T12:52:26.588Z,1.80
2022-09-23T12:55:46.997Z,1.87
2022-09-23T12:58:58.802Z,1.33
2022-09-23T13:01:46.563Z,1.53
2022-09-23T13:05:03.304Z,2.20
2022-09-23T13:07:51.581Z,2.30
2022-09-23T13:10:48.321Z,2.53
2022-09-23T13:13:39.695Z,2.33
2022-09-23T13:16:32.095Z,2.07
2022-09-23T13:19:50.109Z,2.00
2022-09-23T13:23:06.088Z,2.07
2022-09-23T13:25:57.121Z,2.27
2022-09-23T13:28:56.053Z,1.43
2022-09-23T13:31:46.373Z,2.10
2022-09-23T13:34:35.952Z,1.70
2022-09-23T13:37:24.817Z,2.03
2022-09-23T13:40:19.778Z,2.10
2022-09-23T13:43:11.166Z,1.60
2022-09-23T13:45:58.360Z,2.00
2022-09-23T13:48:48.957Z,1.70
2022-09-23T13:51:36.959Z,1.80
2022-09-23T13:54:32.359Z,1.73
2022-09-23T13:57:26.739Z,1.93
2022-09-23T14:00:21.207Z,1.70
2022-09-23T14:03:26.257Z,1.90
2022-09-23T14:06:16.023Z,2.00
2022-09-23T14:09:03.285Z,1.47
2022-09-23T14:11:51.691Z,2.60
2022-09-23T14:14:41.077Z,2.10
2022-09-23T14:17:27.501Z,1.33
2022-09-23T14:20:15.575Z,3.37
2022-09-23T14:23:11.704Z,2.27
2022-09-23T14:25:59.943Z,1.73
2022-09-23T14:28:48.141Z,2.07
2022-09-23T14:31:34.896Z,3.60
2022-09-23T14:34:44.652Z,2.57
2022-09-23T14:37:50.960Z,2.10
2022-09-23T14:40:51.560Z,1.80
2022-09-23T14:43:38.156Z,1.90
2022-09-23T14:46:27.200Z,1.40
2022-09-23T14:49:18.324Z,2.63
2022-09-23T14:52:07.719Z,2.10
2022-09-23T14:54:54.113Z,5.30
2022-09-23T14:57:43.326Z,1.63
2022-09-23T15:00:31.164Z,2.87
2022-09-23T15:03:18.645Z,3.33
2022-09-23T15:06:09.199Z,2.83
2022-09-23T15:08:56.911Z,1.50
2022-09-23T15:11:43.739Z,1.40
2022-09-23T15:14:39.772Z,1.67
2022-09-23T15:17:33.951Z,1.40
2022-09-23T15:20:24.821Z,1.50
2022-09-23T15:23:34.136Z,1.33
2022-09-23T15:26:22.328Z,1.40
2022-09-23T15:29:10.239Z,1.50
2022-09-23T15:31:58.488Z,1.30
2022-09-23T15:34:45.354Z,1.40
2022-09-23T15:37:36.178Z,1.30
2022-09-23T15:40:25.440Z,1.60
2022-09-23T15:43:20.903Z,1.40
2022-09-23T15:46:10.033Z,2.13
2022-09-23T15:49:00.601Z,1.80
2022-09-23T15:51:47.358Z,1.60
2022-09-23T15:54:33.931Z,1.57
2022-09-23T15:57:21.575Z,1.50
2022-09-23T16:00:12.224Z,1.83
2022-09-23T16:02:59.169Z,1.70
2022-09-23T16:05:48.918Z,1.67
2022-09-23T16:08:35.466Z,1.40
2022-09-23T16:11:24.388Z,1.53
2022-09-23T16:14:14.409Z,2.00
2022-09-23T16:17:03.489Z,1.50
2022-09-23T16:19:50.125Z,1.90
2022-09-23T16:22:38.309Z,1.57
2022-09-23T16:25:27.403Z,1.73
2022-09-23T16:28:13.680Z,1.77
2022-09-23T16:31:00.119Z,1.53
2022-09-23T16:33:47.820Z,1.53
2022-09-23T16:36:35.873Z,1.77
2022-09-23T16:39:23.585Z,1.60
2022-09-23T16:42:10.442Z,1.93
2022-09-23T16:44:57.180Z,2.20
2022-09-23T16:47:45.354Z,1.80
2022-09-23T16:50:33.511Z,2.57
2022-09-23T16:53:20.089Z,2.33
2022-09-23T16:56:09.801Z,2.90
2022-09-23T16:58:57.307Z,2.40
2022-09-23T17:02:01.658Z,2.90
2022-09-23T17:04:48.107Z,3.43
2022-09-23T17:07:34.567Z,2.53
2022-09-23T17:10:21.464Z,2.50
2022-09-23T17:13:09.889Z,2.30
2022-09-23T17:15:56.690Z,2.17
2022-09-23T17:18:43.916Z,2.40
2022-09-23T17:21:30.296Z,2.20
2022-09-23T17:24:16.867Z,2.80
2022-09-23T17:27:03.773Z,2.77
2022-09-23T17:29:51.747Z,3.40
2022-09-23T17:32:38.098Z,3.17
2022-09-23T17:35:24.569Z,3.40
2022-09-23T17:38:10.909Z,3.30
2022-09-23T17:40:59.131Z,3.17
2022-09-23T17:43:46.704Z,3.43
2022-09-23T17:46:34.844Z,3.97
2022-09-23T17:49:21.975Z,3.27
2022-09-23T17:52:08.749Z,3.40
2022-09-23T17:54:55.287Z,3.50
2022-09-23T17:57:41.729Z,3.17
2022-09-23T18:00:28.174Z,2.80
2022-09-23T18:03:15.892Z,2.70
2022-09-23T18:06:10.349Z,2.80
2022-09-23T18:08:56.945Z,2.83
2022-09-23T18:11:45.308Z,2.87
2022-09-23T18:14:31.805Z,2.50
2022-09-23T18:17:18.453Z,2.50
2022-09-23T18:20:07.820Z,2.77
2022-09-23T18:22:54.420Z,2.93
2022-09-23T18:25:40.741Z,2.43
2022-09-23T18:28:34.029Z,2.87
2022-09-23T18:31:22.572Z,2.33
2022-09-23T18:34:12.419Z,3.07
2022-09-23T18:37:00.390Z,2.97
2022-09-23T18:39:48.553Z,2.53
2022-09-23T18:42:35.009Z,2.70
2022-09-23T18:45:21.376Z,3.57
2022-09-23T18:48:27.774Z,4.37
2022-09-23T18:51:16.515Z,4.27
2022-09-23T18:54:06.630Z,3.77
2022-09-23T18:56:53.490Z,4.27
2022-09-23T18:59:40.003Z,3.67
2022-09-23T19:02:26.967Z,3.30
2022-09-23T19:05:13.421Z,3.80
2022-09-23T19:07:59.653Z,2.63
2022-09-23T19:10:56.391Z,5.80
2022-09-23T19:13:43.030Z,6.10
2022-09-23T19:16:31.777Z,4.70
2022-09-23T19:19:18.573Z,2.93
2022-09-23T19:22:04.903Z,2.53
2022-09-23T19:24:51.231Z,2.53
2022-09-23T19:27:40.191Z,2.50
2022-09-23T19:30:26.540Z,2.50
2022-09-23T19:33:12.921Z,2.37
2022-09-23T19:35:59.280Z,2.43
2022-09-23T19:38:45.603Z,2.73
2022-09-23T19:41:33.528Z,2.40
2022-09-23T19:44:21.403Z,3.30
2022-09-23T19:47:08.183Z,3.20
2022-09-23T19:49:54.953Z,3.17
2022-09-23T19:52:41.427Z,3.27
2022-09-23T19:55:28.264Z,3.80
2022-09-23T19:58:14.952Z,3.30
2022-09-23T20:01:07.026Z,4.13
2022-09-23T20:03:54.045Z,3.87
2022-09-23T20:06:40.995Z,4.70
2022-09-23T20:09:28.932Z,6.70
2022-09-23T20:12:15.515Z,4.50
2022-09-23T20:15:01.943Z,4.97
2022-09-23T20:17:49.637Z,5.40
2022-09-23T20:20:35.981Z,5.83
2022-09-23T20:23:22.512Z,5.87
2022-09-23T20:26:27.138Z,5.60
2022-09-23T20:29:13.649Z,10.50
2022-09-23T20:32:00.172Z,13.07
2022-09-23T20:34:48.805Z,12.90
2022-09-23T20:37:35.130Z,9.07
2022-09-23T20:40:23.038Z,7.57
2022-09-23T20:43:10.055Z,5.63
2022-09-23T20:45:56.777Z,6.97
2022-09-23T20:48:43.325Z,6.80
2022-09-23T20:51:33.292Z,5.67
2022-09-23T20:54:20.002Z,6.13
2022-09-23T20:57:06.313Z,6.10
2022-09-23T20:59:53.097Z,6.37
2022-09-23T21:02:39.922Z,6.80
2022-09-23T21:05:26.338Z,5.40
2022-09-23T21:08:14.051Z,4.50
2022-09-23T21:11:02.388Z,4.93
2022-09-23T21:13:50.384Z,4.90
2022-09-23T21:16:37.112Z,4.07
2022-09-23T21:19:24.446Z,4.47
2022-09-23T21:22:12.399Z,4.47
2022-09-23T21:28:07.117Z,4.40
2022-09-23T21:30:53.524Z,4.50
2022-09-23T21:33:40.388Z,4.67
2022-09-23T21:36:28.225Z,4.47
2022-09-23T21:39:16.186Z,4.40
2022-09-23T21:42:03.965Z,4.60
2022-09-23T21:44:50.267Z,4.70
2022-09-23T21:47:36.688Z,4.03
2022-09-23T21:50:23.091Z,5.10
2022-09-23T21:53:10.037Z,4.50
2022-09-23T21:56:02.922Z,4.70
2022-09-23T21:58:52.138Z,5.17
2022-09-23T22:01:40.906Z,4.30
2022-09-23T22:04:27.445Z,4.20
2022-09-23T22:07:14.334Z,4.50
2022-09-23T22:10:00.713Z,4.07
2022-09-23T22:12:48.941Z,4.63
2022-09-23T22:15:37.537Z,3.77
2022-09-23T22:18:24.234Z,3.80
2022-09-23T22:21:10.581Z,3.80
2022-09-23T22:23:58.527Z,3.93
2022-09-23T22:26:45.915Z,4.67
2022-09-23T22:29:49.838Z,4.40
2022-09-23T22:32:46.180Z,4.33
2022-09-23T22:35:32.617Z,4.17
2022-09-23T22:38:19.059Z,4.43
2022-09-23T22:41:05.698Z,4.37
2022-09-23T22:43:53.885Z,4.70
2022-09-23T22:46:40.367Z,4.23
2022-09-23T22:49:28.034Z,3.90
2022-09-23T22:52:16.143Z,4.40
2022-09-23T22:55:03.644Z,4.70
2022-09-23T22:57:51.533Z,4.40
2022-09-23T23:00:38.634Z,4.60
2022-09-23T23:03:26.791Z,4.53
2022-09-23T23:06:14.692Z,4.40
2022-09-23T23:09:02.012Z,4.00
2022-09-23T23:11:48.523Z,4.37
2022-09-23T23:14:36.979Z,3.70
2022-09-23T23:17:23.547Z,4.93
2022-09-23T23:20:10.777Z,4.87
2022-09-23T23:23:01.176Z,4.73
2022-09-23T23:25:47.436Z,4.50
2022-09-23T23:28:33.894Z,4.60
2022-09-23T23:31:22.787Z,7.20
2022-09-23T23:34:12.253Z,9.10
2022-09-23T23:36:58.600Z,11.30
2022-09-23T23:39:47.774Z,10.37
2022-09-23T23:42:34.740Z,9.07
2022-09-23T23:45:21.604Z,8.00
2022-09-23T23:48:08.078Z,9.53
2022-09-23T23:50:55.313Z,10.23
2022-09-23T23:53:43.410Z,9.07
2022-09-23T23:56:32.066Z,7.90
2022-09-23T23:59:20.153Z,7.27
